createdAt,value
2023-04-08T00:00:12.929Z,0.87
2023-04-08T00:01:12.021Z,0.89
2023-04-08T00:02:12.125Z,0.89
2023-04-08T00:03:12.207Z,0.88
2023-04-08T00:04:12.220Z,0.88
2023-04-08T00:05:12.178Z,0.88
2023-04-08T00:06:12.205Z,0.87
2023-04-08T00:07:12.245Z,0.87
2023-04-08T00:08:12.353Z,0.89
2023-04-08T00:09:12.312Z,0.87
2023-04-08T00:10:12.352Z,0.88
2023-04-08T00:11:12.376Z,0.89
2023-04-08T00:12:12.427Z,0.89
2023-04-08T00:13:13.441Z,0.88
2023-04-08T00:14:12.505Z,0.89
2023-04-08T00:15:12.544Z,0.88
2023-04-08T00:16:12.711Z,0.89
2023-04-08T00:17:12.778Z,0.88
2023-04-08T00:18:12.662Z,0.88
2023-04-08T00:19:12.697Z,0.90
2023-04-08T00:20:12.728Z,0.89
2023-04-08T00:21:12.774Z,0.90
2023-04-08T00:22:12.811Z,0.88
2023-04-08T00:23:12.862Z,0.88
2023-04-08T00:24:12.889Z,0.90
2023-04-08T00:25:12.919Z,0.90
2023-04-08T00:26:12.955Z,0.89
2023-04-08T00:27:13.452Z,0.89
2023-04-08T00:28:13.033Z,0.89
2023-04-08T00:29:13.072Z,0.90
2023-04-08T00:30:13.107Z,0.87
2023-04-08T00:31:13.160Z,0.90
2023-04-08T00:32:13.190Z,0.90
2023-04-08T00:33:13.239Z,0.89
2023-04-08T00:34:13.304Z,0.89
2023-04-08T00:35:13.284Z,0.89
2023-04-08T00:36:13.325Z,0.87
2023-04-08T00:37:13.391Z,0.89
2023-04-08T00:38:13.474Z,0.88
2023-04-08T00:39:13.456Z,0.88
2023-04-08T00:40:14.461Z,0.89
2023-04-08T00:41:13.522Z,0.90
2023-04-08T00:42:14.472Z,0.89
2023-04-08T00:43:13.599Z,0.89
2023-04-08T00:44:13.635Z,0.89
2023-04-08T00:45:13.673Z,0.88
2023-04-08T00:46:13.776Z,0.88
2023-04-08T00:47:13.739Z,0.90
2023-04-08T00:48:13.775Z,0.90
2023-04-08T00:49:13.809Z,0.89
2023-04-08T00:50:14.454Z,0.90
2023-04-08T00:51:13.881Z,0.91
2023-04-08T00:52:13.914Z,0.89
2023-04-08T00:53:13.947Z,0.90
2023-04-08T00:54:13.961Z,0.90
2023-04-08T00:55:13.998Z,0.91
2023-04-08T00:56:14.033Z,0.90
2023-04-08T00:57:14.072Z,0.90
2023-04-08T00:58:14.091Z,0.90
2023-04-08T00:59:14.121Z,0.90
2023-04-08T01:00:14.175Z,0.91
2023-04-08T01:01:14.292Z,0.90
2023-04-08T01:02:14.336Z,0.91
2023-04-08T01:03:14.521Z,0.89
2023-04-08T01:04:14.381Z,0.90
2023-04-08T01:05:14.339Z,0.92
2023-04-08T01:06:14.393Z,0.91
2023-04-08T01:07:14.416Z,0.91
2023-04-08T01:08:14.470Z,0.90
2023-04-08T01:09:14.476Z,0.91
2023-04-08T01:10:14.517Z,0.90
2023-04-08T01:11:14.540Z,0.90
2023-04-08T01:12:14.571Z,0.90
2023-04-08T01:13:14.577Z,0.91
2023-04-08T01:14:14.620Z,0.90
2023-04-08T01:15:14.666Z,0.89
2023-04-08T01:16:14.701Z,0.90
2023-04-08T01:17:14.714Z,0.91
2023-04-08T01:18:14.743Z,0.93
2023-04-08T01:19:14.751Z,0.91
2023-04-08T01:20:14.763Z,0.90
2023-04-08T01:21:14.781Z,0.91
2023-04-08T01:22:14.814Z,0.91
2023-04-08T01:23:14.855Z,0.91
2023-04-08T01:24:14.870Z,0.91
2023-04-08T01:25:14.903Z,0.91
2023-04-08T01:26:14.932Z,0.91
2023-04-08T01:27:14.955Z,0.91
2023-04-08T01:28:14.985Z,0.91
2023-04-08T01:29:15.016Z,0.92
2023-04-08T01:30:15.028Z,0.91
2023-04-08T01:31:15.065Z,0.92
2023-04-08T01:32:15.079Z,0.92
2023-04-08T01:33:15.117Z,0.91
2023-04-08T01:34:16.028Z,0.92
2023-04-08T01:35:15.206Z,0.89
2023-04-08T01:36:15.211Z,0.91
2023-04-08T01:37:15.245Z,0.91
2023-04-08T01:38:15.290Z,0.91
2023-04-08T01:39:15.301Z,0.92
2023-04-08T01:40:15.325Z,0.92
2023-04-08T01:41:15.362Z,0.91
2023-04-08T01:42:15.399Z,0.90
2023-04-08T01:43:15.436Z,0.91
2023-04-08T01:44:15.480Z,0.92
2023-04-08T01:45:15.512Z,0.91
2023-04-08T01:46:15.654Z,0.92
2023-04-08T01:47:15.594Z,0.92
2023-04-08T01:48:15.633Z,0.92
2023-04-08T01:49:15.672Z,0.92
2023-04-08T01:50:15.722Z,0.92
2023-04-08T01:51:15.752Z,0.92
2023-04-08T01:52:15.802Z,0.93
2023-04-08T01:53:15.831Z,0.92
2023-04-08T01:54:15.879Z,0.91
2023-04-08T01:55:16.486Z,0.93
2023-04-08T01:56:15.957Z,0.91
2023-04-08T01:57:15.983Z,0.91
2023-04-08T01:58:16.042Z,0.92
2023-04-08T01:59:16.054Z,0.94
2023-04-08T02:00:16.085Z,0.90
2023-04-08T02:01:16.124Z,0.92
2023-04-08T02:02:16.267Z,0.92
2023-04-08T02:03:16.371Z,0.93
2023-04-08T02:04:16.299Z,0.93
2023-04-08T02:05:16.253Z,0.92
2023-04-08T02:06:16.262Z,0.92
2023-04-08T02:07:16.262Z,0.92
2023-04-08T02:08:16.281Z,0.93
2023-04-08T02:09:16.341Z,0.91
2023-04-08T02:10:16.366Z,0.92
2023-04-08T02:11:16.413Z,0.92
2023-04-08T02:12:16.443Z,0.92
2023-04-08T02:13:16.501Z,0.93
2023-04-08T02:14:16.536Z,0.92
2023-04-08T02:15:16.576Z,0.93
2023-04-08T02:16:16.671Z,0.92
2023-04-08T02:17:16.640Z,0.92
2023-04-08T02:18:16.678Z,0.94
2023-04-08T02:19:16.677Z,0.93
2023-04-08T02:20:16.752Z,0.94
2023-04-08T02:21:16.739Z,0.92
2023-04-08T02:22:16.812Z,0.92
2023-04-08T02:23:16.758Z,0.92
2023-04-08T02:24:16.823Z,0.93
2023-04-08T02:25:16.817Z,0.92
2023-04-08T02:26:16.817Z,0.91
2023-04-08T02:27:16.819Z,0.94
2023-04-08T02:28:16.830Z,0.92
2023-04-08T02:29:16.841Z,0.93
2023-04-08T02:30:16.855Z,0.91
2023-04-08T02:31:16.870Z,0.94
2023-04-08T02:32:16.883Z,0.94
2023-04-08T02:33:16.912Z,0.94
2023-04-08T02:34:16.942Z,0.91
2023-04-08T02:35:17.044Z,0.94
2023-04-08T02:36:16.964Z,0.93
2023-04-08T02:37:17.016Z,0.92
2023-04-08T02:38:16.984Z,0.94
2023-04-08T02:39:16.966Z,0.94
2023-04-08T02:40:16.980Z,0.93
2023-04-08T02:41:16.994Z,0.94
2023-04-08T02:42:17.018Z,0.94
2023-04-08T02:43:17.008Z,0.94
2023-04-08T02:44:17.027Z,0.94
2023-04-08T02:45:17.023Z,0.93
2023-04-08T02:46:17.093Z,0.93
2023-04-08T02:47:17.068Z,0.93
2023-04-08T02:48:17.068Z,0.93
2023-04-08T02:49:17.085Z,0.93
2023-04-08T02:50:17.141Z,0.94
2023-04-08T02:51:17.131Z,0.94
2023-04-08T02:52:17.170Z,0.94
2023-04-08T02:53:17.194Z,0.94
2023-04-08T02:54:17.208Z,0.94
2023-04-08T02:55:17.231Z,0.94
2023-04-08T02:56:17.240Z,0.94
2023-04-08T02:57:17.261Z,0.94
2023-04-08T02:58:17.300Z,0.93
2023-04-08T02:59:17.324Z,0.94
2023-04-08T03:00:17.331Z,0.94
2023-04-08T03:01:17.379Z,0.94
2023-04-08T03:02:17.505Z,0.95
2023-04-08T03:03:17.617Z,0.93
2023-04-08T03:04:17.466Z,0.94
2023-04-08T03:05:17.506Z,0.94
2023-04-08T03:06:17.544Z,0.95
2023-04-08T03:07:17.545Z,0.93
2023-04-08T03:08:17.566Z,0.94
2023-04-08T03:09:17.562Z,0.93
2023-04-08T03:10:17.573Z,0.95
2023-04-08T03:11:17.575Z,0.94
2023-04-08T03:12:17.590Z,0.92
2023-04-08T03:13:17.620Z,0.93
2023-04-08T03:14:17.629Z,0.94
2023-04-08T03:15:17.651Z,0.94
2023-04-08T03:16:17.724Z,0.95
2023-04-08T03:17:17.699Z,0.94
2023-04-08T03:18:17.734Z,0.92
2023-04-08T03:19:17.719Z,0.94
2023-04-08T03:20:17.736Z,0.94
2023-04-08T03:21:17.740Z,0.94
2023-04-08T03:22:17.744Z,0.95
2023-04-08T03:23:17.739Z,0.95
2023-04-08T03:24:17.724Z,0.95
2023-04-08T03:25:17.693Z,0.92
2023-04-08T03:26:17.673Z,0.94
2023-04-08T03:27:17.656Z,0.94
2023-04-08T03:28:17.657Z,0.94
2023-04-08T03:29:17.645Z,0.93
2023-04-08T03:30:17.620Z,0.93
2023-04-08T03:31:17.618Z,0.94
2023-04-08T03:32:17.640Z,0.95
2023-04-08T03:33:17.568Z,0.94
2023-04-08T03:34:17.558Z,0.94
2023-04-08T03:35:17.600Z,0.95
2023-04-08T03:36:17.607Z,0.95
2023-04-08T03:37:17.640Z,0.93
2023-04-08T03:38:17.628Z,0.93
2023-04-08T03:39:17.620Z,0.93
2023-04-08T03:40:17.595Z,0.95
2023-04-08T03:41:17.590Z,0.95
2023-04-08T03:42:17.585Z,0.94
2023-04-08T03:43:17.547Z,0.96
2023-04-08T03:44:17.514Z,0.95
2023-04-08T03:45:17.507Z,0.94
2023-04-08T03:46:17.525Z,0.93
2023-04-08T03:47:17.491Z,0.95
2023-04-08T03:48:17.490Z,0.94
2023-04-08T03:49:17.504Z,0.94
2023-04-08T03:50:17.515Z,0.94
2023-04-08T03:51:17.592Z,0.93
2023-04-08T03:52:17.523Z,0.94
2023-04-08T03:53:17.551Z,0.94
2023-04-08T03:54:17.569Z,0.95
2023-04-08T03:55:17.587Z,0.93
2023-04-08T03:56:17.607Z,0.94
2023-04-08T03:57:17.631Z,0.96
2023-04-08T03:58:17.744Z,0.93
2023-04-08T03:59:17.694Z,0.94
2023-04-08T04:00:17.662Z,0.94
2023-04-08T04:01:17.660Z,0.94
2023-04-08T04:02:17.722Z,0.95
2023-04-08T04:03:17.745Z,0.96
2023-04-08T04:04:17.741Z,0.96
2023-04-08T04:05:17.650Z,0.95
2023-04-08T04:06:17.643Z,0.96
2023-04-08T04:07:17.648Z,0.96
2023-04-08T04:08:17.646Z,0.95
2023-04-08T04:09:17.643Z,0.95
2023-04-08T04:10:17.641Z,0.95
2023-04-08T04:11:17.616Z,0.95
2023-04-08T04:12:17.642Z,0.94
2023-04-08T04:13:17.656Z,0.96
2023-04-08T04:14:17.679Z,0.94
2023-04-08T04:15:17.689Z,0.95
2023-04-08T04:16:17.762Z,0.95
2023-04-08T04:17:17.745Z,0.95
2023-04-08T04:18:17.686Z,0.96
2023-04-08T04:19:17.660Z,0.96
2023-04-08T04:20:17.685Z,0.94
2023-04-08T04:21:17.710Z,0.94
2023-04-08T04:22:17.725Z,0.94
2023-04-08T04:23:18.032Z,0.95
2023-04-08T04:24:18.536Z,0.96
2023-04-08T04:25:17.726Z,0.95
2023-04-08T04:26:17.697Z,0.95
2023-04-08T04:27:17.748Z,0.95
2023-04-08T04:28:17.673Z,0.96
2023-04-08T04:29:17.688Z,0.96
2023-04-08T04:30:17.719Z,0.95
2023-04-08T04:31:17.773Z,0.95
2023-04-08T04:32:17.749Z,0.95
2023-04-08T04:33:17.729Z,0.95
2023-04-08T04:34:17.750Z,0.95
2023-04-08T04:35:17.862Z,0.96
2023-04-08T04:36:17.778Z,0.95
2023-04-08T04:37:17.784Z,0.94
2023-04-08T04:38:17.761Z,0.95
2023-04-08T04:39:17.739Z,0.95
2023-04-08T04:40:17.716Z,0.95
2023-04-08T04:41:17.712Z,0.95
2023-04-08T04:42:17.693Z,0.94
2023-04-08T04:43:17.668Z,0.97
2023-04-08T04:44:17.659Z,0.97
2023-04-08T04:45:17.672Z,0.95
2023-04-08T04:46:17.776Z,0.95
2023-04-08T04:47:17.629Z,0.94
2023-04-08T04:48:17.626Z,0.96
2023-04-08T04:49:17.619Z,0.95
2023-04-08T04:50:17.668Z,0.93
2023-04-08T04:51:17.618Z,0.97
2023-04-08T04:52:17.629Z,0.93
2023-04-08T04:53:17.648Z,0.96
2023-04-08T04:54:17.631Z,0.94
2023-04-08T04:55:17.646Z,0.95
2023-04-08T04:56:17.635Z,0.94
2023-04-08T04:57:17.625Z,0.95
2023-04-08T04:58:17.617Z,0.97
2023-04-08T04:59:17.612Z,0.94
2023-04-08T05:00:17.617Z,0.95
2023-04-08T05:01:17.636Z,0.96
2023-04-08T05:02:17.689Z,0.96
2023-04-08T05:03:18.109Z,0.96
2023-04-08T05:04:17.638Z,0.93
2023-04-08T05:05:17.781Z,0.94
2023-04-08T05:06:17.666Z,0.95
2023-04-08T05:07:17.667Z,0.95
2023-04-08T05:08:17.793Z,0.97
2023-04-08T05:09:17.694Z,0.96
2023-04-08T05:10:17.685Z,0.97
2023-04-08T05:11:18.554Z,0.97
2023-04-08T05:12:17.658Z,0.96
2023-04-08T05:13:17.629Z,0.96
2023-04-08T05:14:18.555Z,0.96
2023-04-08T05:15:17.589Z,0.95
2023-04-08T05:16:17.617Z,0.95
2023-04-08T05:17:17.584Z,0.96
2023-04-08T05:18:17.598Z,0.95
2023-04-08T05:19:17.614Z,0.96
2023-04-08T05:20:17.784Z,0.94
2023-04-08T05:21:17.583Z,0.96
2023-04-08T05:22:17.580Z,0.96
2023-04-08T05:23:17.592Z,0.95
2023-04-08T05:24:17.571Z,0.97
2023-04-08T05:25:17.558Z,0.94
2023-04-08T05:26:19.307Z,0.96
2023-04-08T05:27:17.508Z,0.96
2023-04-08T05:28:17.474Z,0.95
2023-04-08T05:29:17.438Z,0.94
2023-04-08T05:30:17.412Z,0.95
2023-04-08T05:31:17.440Z,0.95
2023-04-08T05:32:17.348Z,0.96
2023-04-08T05:33:17.309Z,0.95
2023-04-08T05:34:17.277Z,0.96
2023-04-08T05:35:17.318Z,0.94
2023-04-08T05:36:17.208Z,0.95
2023-04-08T05:37:17.174Z,0.95
2023-04-08T05:38:17.157Z,0.95
2023-04-08T05:39:17.116Z,0.94
2023-04-08T05:40:17.145Z,0.93
2023-04-08T05:41:17.070Z,0.96
2023-04-08T05:42:17.037Z,0.94
2023-04-08T05:43:17.007Z,0.95
2023-04-08T05:44:17.572Z,0.95
2023-04-08T05:45:16.944Z,0.95
2023-04-08T05:46:16.925Z,0.94
2023-04-08T05:47:16.873Z,0.94
2023-04-08T05:48:16.861Z,0.93
2023-04-08T05:49:16.812Z,0.92
2023-04-08T05:50:16.789Z,0.92
2023-04-08T05:51:16.749Z,0.92
2023-04-08T05:52:16.722Z,0.94
2023-04-08T05:53:16.692Z,0.94
2023-04-08T05:54:16.640Z,0.92
2023-04-08T05:55:16.608Z,0.92
2023-04-08T05:56:16.650Z,0.93
2023-04-08T05:57:16.576Z,0.93
2023-04-08T05:58:16.526Z,0.92
2023-04-08T05:59:16.489Z,0.93
2023-04-08T06:00:16.458Z,0.94
2023-04-08T06:01:16.434Z,0.91
2023-04-08T06:02:16.402Z,0.91
2023-04-08T06:03:18.250Z,0.92
2023-04-08T06:04:16.478Z,0.92
2023-04-08T06:05:16.261Z,0.92
2023-04-08T06:06:16.228Z,0.93
2023-04-08T06:07:16.199Z,0.93
2023-04-08T06:08:16.208Z,0.92
2023-04-08T06:09:16.112Z,0.92
2023-04-08T06:10:16.082Z,0.91
2023-04-08T06:11:16.034Z,0.91
2023-04-08T06:12:16.004Z,0.91
2023-04-08T06:13:15.961Z,0.92
2023-04-08T06:14:15.915Z,0.91
2023-04-08T06:15:15.887Z,0.91
2023-04-08T06:16:17.220Z,0.91
2023-04-08T06:17:15.797Z,0.91
2023-04-08T06:18:15.765Z,0.92
2023-04-08T06:19:15.740Z,0.90
2023-04-08T06:20:15.698Z,0.91
2023-04-08T06:21:15.655Z,0.90
2023-04-08T06:22:15.610Z,0.91
2023-04-08T06:23:15.579Z,0.90
2023-04-08T06:24:15.529Z,0.90
2023-04-08T06:25:15.492Z,0.92
2023-04-08T06:26:15.458Z,0.92
2023-04-08T06:27:15.424Z,0.89
2023-04-08T06:28:15.394Z,0.89
2023-04-08T06:29:15.352Z,0.90
2023-04-08T06:30:15.330Z,0.88
2023-04-08T06:31:15.330Z,0.90
2023-04-08T06:32:15.234Z,0.88
2023-04-08T06:33:15.207Z,0.90
2023-04-08T06:34:15.180Z,0.91
2023-04-08T06:35:15.140Z,0.90
2023-04-08T06:36:15.119Z,0.90
2023-04-08T06:37:15.083Z,0.90
2023-04-08T06:38:15.052Z,0.89
2023-04-08T06:39:15.017Z,0.89
2023-04-08T06:40:15.143Z,0.90
2023-04-08T06:41:14.967Z,0.89
2023-04-08T06:42:15.093Z,0.88
2023-04-08T06:43:14.877Z,0.88
2023-04-08T06:44:14.848Z,0.88
2023-04-08T06:45:14.809Z,0.89
2023-04-08T06:46:14.823Z,0.89
2023-04-08T06:47:14.762Z,0.88
2023-04-08T06:48:14.700Z,0.88
2023-04-08T06:49:14.671Z,0.89
2023-04-08T06:50:14.652Z,0.89
2023-04-08T06:51:14.607Z,0.89
2023-04-08T06:52:15.198Z,0.88
2023-04-08T06:53:14.741Z,0.87
2023-04-08T06:54:14.516Z,0.89
2023-04-08T06:55:14.563Z,0.87
2023-04-08T06:56:14.509Z,0.88
2023-04-08T06:57:14.424Z,0.89
2023-04-08T06:58:14.398Z,0.88
2023-04-08T06:59:14.360Z,0.87
2023-04-08T07:00:14.342Z,0.88
2023-04-08T07:01:14.370Z,0.86
2023-04-08T07:02:14.314Z,0.90
2023-04-08T07:03:15.166Z,0.89
2023-04-08T07:04:14.247Z,0.88
2023-04-08T07:05:14.187Z,0.88
2023-04-08T07:06:14.420Z,0.88
2023-04-08T07:07:14.108Z,0.88
2023-04-08T07:08:14.129Z,0.90
2023-04-08T07:09:14.041Z,0.86
2023-04-08T07:10:14.016Z,0.89
2023-04-08T07:11:13.977Z,0.86
2023-04-08T07:12:13.939Z,0.89
2023-04-08T07:13:13.950Z,0.87
2023-04-08T07:14:13.889Z,0.87
2023-04-08T07:15:13.858Z,0.89
2023-04-08T07:16:13.831Z,0.90
2023-04-08T07:17:13.808Z,0.87
2023-04-08T07:18:14.023Z,0.87
2023-04-08T07:19:13.726Z,0.87
2023-04-08T07:20:13.709Z,0.88
2023-04-08T07:21:13.675Z,0.87
2023-04-08T07:22:13.644Z,0.88
2023-04-08T07:23:13.610Z,0.86
2023-04-08T07:24:13.584Z,0.86
2023-04-08T07:25:13.553Z,0.87
2023-04-08T07:26:13.573Z,0.87
2023-04-08T07:27:13.494Z,0.88
2023-04-08T07:28:13.608Z,0.87
2023-04-08T07:29:13.424Z,0.87
2023-04-08T07:30:13.609Z,0.87
2023-04-08T07:31:13.415Z,0.89
2023-04-08T07:32:13.312Z,0.87
2023-04-08T07:33:13.317Z,0.88
2023-04-08T07:34:13.253Z,0.88
2023-04-08T07:35:13.225Z,0.88
2023-04-08T07:36:13.223Z,0.88
2023-04-08T07:37:13.156Z,0.88
2023-04-08T07:38:13.120Z,0.85
2023-04-08T07:39:13.073Z,0.87
2023-04-08T07:40:13.046Z,0.88
2023-04-08T07:41:13.059Z,0.87
2023-04-08T07:42:12.968Z,0.87
2023-04-08T07:43:12.944Z,0.88
2023-04-08T07:44:12.894Z,0.88
2023-04-08T07:45:12.858Z,0.88
2023-04-08T07:46:12.884Z,0.88
2023-04-08T07:47:13.604Z,0.88
2023-04-08T07:48:12.761Z,0.87
2023-04-08T07:49:12.800Z,0.86
2023-04-08T07:50:12.698Z,0.86
2023-04-08T07:51:12.649Z,0.86
2023-04-08T07:52:12.642Z,0.86
2023-04-08T07:53:12.593Z,0.87
2023-04-08T07:54:12.590Z,0.87
2023-04-08T07:55:12.537Z,0.87
2023-04-08T07:56:12.512Z,0.87
2023-04-08T07:57:12.464Z,0.87
2023-04-08T07:58:12.621Z,0.87
2023-04-08T07:59:12.390Z,0.86
2023-04-08T08:00:12.349Z,0.86
2023-04-08T08:01:12.317Z,0.85
2023-04-08T08:02:12.429Z,0.85
2023-04-08T08:03:12.800Z,0.86
2023-04-08T08:04:12.301Z,0.87
2023-04-08T08:05:12.252Z,0.86
2023-04-08T08:06:12.116Z,0.87
2023-04-08T08:07:12.087Z,0.87
2023-04-08T08:08:12.045Z,0.86
2023-04-08T08:09:12.081Z,0.85
2023-04-08T08:10:11.990Z,0.87
2023-04-08T08:11:11.932Z,0.86
2023-04-08T08:12:14.623Z,0.87
2023-04-08T08:13:11.861Z,0.88
2023-04-08T08:14:11.822Z,0.87
2023-04-08T08:15:11.791Z,0.87
2023-04-08T08:16:12.215Z,0.86
2023-04-08T08:17:11.714Z,0.87
2023-04-08T08:18:11.700Z,0.87
2023-04-08T08:19:11.631Z,0.89
2023-04-08T08:20:11.621Z,0.88
2023-04-08T08:21:12.117Z,0.86
2023-04-08T08:22:11.531Z,0.86
2023-04-08T08:23:11.495Z,0.86
2023-04-08T08:24:11.461Z,0.87
2023-04-08T08:25:11.426Z,0.86
2023-04-08T08:26:12.142Z,0.87
2023-04-08T08:27:11.360Z,0.85
2023-04-08T08:28:11.324Z,0.87
2023-04-08T08:29:11.283Z,0.87
2023-04-08T08:30:11.249Z,0.85
2023-04-08T08:31:11.211Z,0.86
2023-04-08T08:32:11.156Z,0.86
2023-04-08T08:33:11.170Z,0.86
2023-04-08T08:34:11.087Z,0.86
2023-04-08T08:35:11.035Z,0.85
2023-04-08T08:36:11.040Z,0.85
2023-04-08T08:37:10.954Z,0.85
2023-04-08T08:38:10.926Z,0.87
2023-04-08T08:39:10.876Z,0.84
2023-04-08T08:40:10.860Z,0.84
2023-04-08T08:41:10.819Z,0.85
2023-04-08T08:42:10.772Z,0.84
2023-04-08T08:43:10.748Z,0.86
2023-04-08T08:44:10.695Z,0.84
2023-04-08T08:45:10.660Z,0.85
2023-04-08T08:46:10.648Z,0.84
2023-04-08T08:47:10.576Z,0.85
2023-04-08T08:48:10.563Z,0.86
2023-04-08T08:49:10.497Z,0.84
2023-04-08T08:50:10.531Z,0.85
2023-04-08T08:51:10.414Z,0.84
2023-04-08T08:52:10.376Z,0.85
2023-04-08T08:53:10.351Z,0.85
2023-04-08T08:54:10.292Z,0.85
2023-04-08T08:55:26.998Z,0.86
2023-04-08T08:57:10.152Z,0.86
2023-04-08T08:58:10.128Z,0.86
2023-04-08T08:59:10.073Z,0.86
2023-04-08T09:00:10.031Z,0.86
2023-04-08T09:01:10.000Z,0.85
2023-04-08T09:02:10.080Z,0.86
2023-04-08T09:03:10.050Z,0.85
2023-04-08T09:04:09.964Z,0.86
2023-04-08T09:05:10.060Z,0.87
2023-04-08T09:06:12.608Z,0.88
2023-04-08T09:07:09.755Z,0.88
2023-04-08T09:08:09.694Z,0.88
2023-04-08T09:09:09.653Z,0.87
2023-04-08T09:10:09.615Z,0.89
2023-04-08T09:11:09.577Z,0.88
2023-04-08T09:12:09.533Z,0.87
2023-04-08T09:13:09.488Z,0.85
2023-04-08T09:14:09.448Z,0.90
2023-04-08T09:15:09.406Z,0.88
2023-04-08T09:16:09.415Z,0.89
2023-04-08T09:17:09.324Z,0.88
2023-04-08T09:18:09.305Z,0.88
2023-04-08T09:19:09.247Z,0.90
2023-04-08T09:20:09.209Z,0.89
2023-04-08T09:21:09.166Z,0.89
2023-04-08T09:22:09.125Z,0.89
2023-04-08T09:23:09.081Z,0.88
2023-04-08T09:24:09.046Z,0.91
2023-04-08T09:25:09.009Z,0.89
2023-04-08T09:26:08.985Z,0.89
2023-04-08T09:27:08.940Z,0.89
2023-04-08T09:28:08.900Z,0.89
2023-04-08T09:29:25.188Z,0.89
2023-04-08T09:30:09.827Z,0.89
2023-04-08T09:31:08.795Z,0.89
2023-04-08T09:32:08.752Z,0.90
2023-04-08T09:33:08.755Z,0.89
2023-04-08T09:34:08.697Z,0.88
2023-04-08T09:35:08.633Z,0.89
2023-04-08T09:36:08.630Z,0.88
2023-04-08T09:37:08.535Z,0.89
2023-04-08T09:38:08.485Z,0.88
2023-04-08T09:39:08.443Z,0.89
2023-04-08T09:40:08.408Z,0.89
2023-04-08T09:41:08.412Z,0.88
2023-04-08T09:42:08.414Z,0.87
2023-04-08T09:43:08.433Z,0.88
2023-04-08T09:44:08.412Z,0.88
2023-04-08T09:45:08.393Z,0.89
2023-04-08T09:46:08.453Z,0.88
2023-04-08T09:47:08.380Z,0.89
2023-04-08T09:48:08.405Z,0.88
2023-04-08T09:49:08.380Z,0.87
2023-04-08T09:50:08.369Z,0.87
2023-04-08T09:51:09.168Z,0.89
2023-04-08T09:52:08.348Z,0.86
2023-04-08T09:53:08.347Z,0.88
2023-04-08T09:54:08.336Z,0.88
2023-04-08T09:55:08.335Z,0.86
2023-04-08T09:56:08.330Z,0.88
2023-04-08T09:57:08.328Z,0.86
2023-04-08T09:58:08.333Z,0.86
2023-04-08T09:59:08.304Z,0.87
2023-04-08T10:00:08.295Z,0.88
2023-04-08T10:01:08.324Z,0.88
2023-04-08T10:02:08.377Z,0.89
2023-04-08T10:03:08.574Z,0.87
2023-04-08T10:04:08.372Z,0.87
2023-04-08T10:05:08.771Z,0.88
2023-04-08T10:06:08.255Z,0.87
2023-04-08T10:07:08.246Z,0.87
2023-04-08T10:08:08.252Z,0.87
2023-04-08T10:09:08.223Z,0.88
2023-04-08T10:10:08.229Z,0.88
2023-04-08T10:11:08.221Z,0.89
2023-04-08T10:12:08.188Z,0.88
2023-04-08T10:13:08.176Z,0.88
2023-04-08T10:14:08.162Z,0.89
2023-04-08T10:15:08.162Z,0.89
2023-04-08T10:16:08.243Z,0.88
2023-04-08T10:17:08.143Z,0.87
2023-04-08T10:18:08.312Z,0.87
2023-04-08T10:19:08.122Z,0.87
2023-04-08T10:20:08.113Z,0.87
2023-04-08T10:21:08.108Z,0.89
2023-04-08T10:22:08.190Z,0.88
2023-04-08T10:23:08.096Z,0.88
2023-04-08T10:24:08.107Z,0.88
2023-04-08T10:25:08.090Z,0.88
2023-04-08T10:26:08.057Z,0.86
2023-04-08T10:27:08.046Z,0.87
2023-04-08T10:28:08.036Z,0.86
2023-04-08T10:29:08.021Z,0.87
2023-04-08T10:30:08.013Z,0.87
2023-04-08T10:31:08.002Z,0.86
2023-04-08T10:32:08.058Z,0.85
2023-04-08T10:33:07.981Z,0.86
2023-04-08T10:34:08.042Z,0.85
2023-04-08T10:35:07.939Z,0.85
2023-04-08T10:36:07.930Z,0.85
2023-04-08T10:37:07.897Z,0.86
2023-04-08T10:38:07.901Z,0.84
2023-04-08T10:39:07.890Z,0.85
2023-04-08T10:40:07.941Z,0.83
2023-04-08T10:41:07.856Z,0.85
2023-04-08T10:42:07.852Z,0.84
2023-04-08T10:43:07.836Z,0.83
2023-04-08T10:44:07.820Z,0.83
2023-04-08T10:45:07.820Z,0.82
2023-04-08T10:46:07.816Z,0.83
2023-04-08T10:47:07.789Z,0.80
2023-04-08T10:48:07.819Z,0.81
2023-04-08T10:49:07.828Z,0.80
2023-04-08T10:50:07.729Z,0.81
2023-04-08T10:51:08.183Z,0.79
2023-04-08T10:52:07.763Z,0.80
2023-04-08T10:53:07.700Z,0.80
2023-04-08T10:54:07.680Z,0.78
2023-04-08T10:55:07.707Z,0.78
2023-04-08T10:56:07.895Z,0.78
2023-04-08T10:57:07.723Z,0.77
2023-04-08T10:58:07.653Z,0.78
2023-04-08T10:59:07.600Z,0.78
2023-04-08T11:00:07.587Z,0.76
2023-04-08T11:01:07.877Z,0.77
2023-04-08T11:02:07.801Z,0.77
2023-04-08T11:03:07.710Z,0.76
2023-04-08T11:04:07.590Z,0.76
2023-04-08T11:05:07.517Z,0.76
2023-04-08T11:06:07.544Z,0.76
2023-04-08T11:07:07.491Z,0.75
2023-04-08T11:08:07.472Z,0.76
2023-04-08T11:09:07.456Z,0.76
2023-04-08T11:10:07.543Z,0.77
2023-04-08T11:11:07.426Z,0.76
2023-04-08T11:12:07.415Z,0.76
2023-04-08T11:13:07.408Z,0.77
2023-04-08T11:14:07.422Z,0.75
2023-04-08T11:15:07.388Z,0.76
2023-04-08T11:16:17.126Z,0.74
2023-04-08T11:17:08.338Z,0.75
2023-04-08T11:18:07.387Z,0.75
2023-04-08T11:19:07.261Z,0.75
2023-04-08T11:20:07.203Z,0.76
2023-04-08T11:21:07.220Z,0.76
2023-04-08T11:22:07.131Z,0.76
2023-04-08T11:23:07.105Z,0.76
2023-04-08T11:24:07.042Z,0.77
2023-04-08T11:25:06.999Z,0.76
2023-04-08T11:26:07.007Z,0.77
2023-04-08T11:27:06.903Z,0.76
2023-04-08T11:28:06.926Z,0.77
2023-04-08T11:29:06.828Z,0.78
2023-04-08T11:30:06.771Z,0.76
2023-04-08T11:31:06.773Z,0.77
2023-04-08T11:32:06.689Z,0.76
2023-04-08T11:33:06.699Z,0.76
2023-04-08T11:34:06.693Z,0.75
2023-04-08T11:35:06.683Z,0.77
2023-04-08T11:36:06.652Z,0.77
2023-04-08T11:37:06.635Z,0.76
2023-04-08T11:38:06.646Z,0.77
2023-04-08T11:39:06.613Z,0.77
2023-04-08T11:40:06.612Z,0.79
2023-04-08T11:41:06.610Z,0.77
2023-04-08T11:42:06.578Z,0.77
2023-04-08T11:43:06.700Z,0.79
2023-04-08T11:44:06.572Z,0.79
2023-04-08T11:45:06.564Z,0.78
2023-04-08T11:46:06.618Z,0.78
2023-04-08T11:47:06.546Z,0.78
2023-04-08T11:48:06.666Z,0.78
2023-04-08T11:49:06.610Z,0.78
2023-04-08T11:50:06.533Z,0.78
2023-04-08T11:51:06.518Z,0.77
2023-04-08T11:52:06.524Z,0.79
2023-04-08T11:53:06.523Z,0.79
2023-04-08T11:54:06.518Z,0.77
2023-04-08T11:55:06.527Z,0.78
2023-04-08T11:56:06.515Z,0.80
2023-04-08T11:57:06.510Z,0.79
2023-04-08T11:58:06.504Z,0.80
2023-04-08T11:59:06.520Z,0.79
2023-04-08T12:00:06.523Z,0.79
2023-04-08T12:01:06.526Z,0.79
2023-04-08T12:02:06.544Z,0.79
2023-04-08T12:03:06.594Z,0.79
2023-04-08T12:04:06.715Z,0.79
2023-04-08T12:05:06.531Z,0.80
2023-04-08T12:06:06.503Z,0.81
2023-04-08T12:07:06.505Z,0.80
2023-04-08T12:08:06.514Z,0.80
2023-04-08T12:09:07.208Z,0.80
2023-04-08T12:10:06.538Z,0.80
2023-04-08T12:11:18.728Z,0.80
2023-04-08T12:12:07.510Z,0.80
2023-04-08T12:13:06.445Z,0.80
2023-04-08T12:14:06.452Z,0.80
2023-04-08T12:15:06.393Z,0.82
2023-04-08T12:16:06.413Z,0.83
2023-04-08T12:17:06.326Z,0.84
2023-04-08T12:18:06.324Z,0.83
2023-04-08T12:19:06.271Z,0.83
2023-04-08T12:20:06.250Z,0.84
2023-04-08T12:21:06.232Z,0.84
2023-04-08T12:22:06.212Z,0.84
2023-04-08T12:23:06.184Z,0.83
2023-04-08T12:24:06.173Z,0.83
2023-04-08T12:25:06.131Z,0.84
2023-04-08T12:26:06.104Z,0.84
2023-04-08T12:27:06.113Z,0.85
2023-04-08T12:28:06.047Z,0.83
2023-04-08T12:29:06.018Z,0.83
2023-04-08T12:30:05.985Z,0.84
2023-04-08T12:31:05.985Z,0.84
2023-04-08T12:32:05.941Z,0.85
2023-04-08T12:33:05.910Z,0.86
2023-04-08T12:34:05.962Z,0.84
2023-04-08T12:35:05.888Z,0.84
2023-04-08T12:36:05.910Z,0.85
2023-04-08T12:37:05.877Z,0.86
2023-04-08T12:38:06.242Z,0.86
2023-04-08T12:39:05.876Z,0.86
2023-04-08T12:40:05.881Z,0.85
2023-04-08T12:41:05.862Z,0.84
2023-04-08T12:42:05.914Z,0.82
2023-04-08T12:43:05.925Z,0.84
2023-04-08T12:44:05.864Z,0.83
2023-04-08T12:45:05.860Z,0.84
2023-04-08T12:46:05.858Z,0.85
2023-04-08T12:47:05.920Z,0.84
2023-04-08T12:48:05.881Z,0.84
2023-04-08T12:49:06.452Z,0.83
2023-04-08T12:50:05.877Z,0.82
2023-04-08T12:51:05.851Z,0.83
2023-04-08T12:52:05.859Z,0.84
2023-04-08T12:53:05.865Z,0.84
2023-04-08T12:54:05.864Z,0.83
2023-04-08T12:55:05.892Z,0.83
2023-04-08T12:56:05.861Z,0.84
2023-04-08T12:57:05.867Z,0.84
2023-04-08T12:58:05.871Z,0.84
2023-04-08T12:59:05.874Z,0.83
2023-04-08T13:00:05.870Z,0.84
2023-04-08T13:01:05.905Z,0.83
2023-04-08T13:02:05.923Z,0.83
2023-04-08T13:03:05.927Z,0.82
2023-04-08T13:04:05.917Z,0.83
2023-04-08T13:05:05.885Z,0.82
2023-04-08T13:06:05.886Z,0.82
2023-04-08T13:07:05.893Z,0.83
2023-04-08T13:08:05.903Z,0.82
2023-04-08T13:09:05.891Z,0.81
2023-04-08T13:10:05.898Z,0.83
2023-04-08T13:11:05.938Z,0.81
2023-04-08T13:12:05.929Z,0.81
2023-04-08T13:13:05.899Z,0.81
2023-04-08T13:14:05.901Z,0.79
2023-04-08T13:15:05.897Z,0.79
2023-04-08T13:16:06.757Z,0.81
2023-04-08T13:17:05.911Z,0.82
2023-04-08T13:18:06.013Z,0.82
2023-04-08T13:19:05.954Z,0.80